createdAt,value
2023-04-18T00:01:44.519Z,8.70
2023-04-18T00:04:12.341Z,8.80
2023-04-18T00:06:39.931Z,8.80
2023-04-18T00:09:06.705Z,8.90
2023-04-18T00:11:34.409Z,9.00
2023-04-18T00:14:01.061Z,9.10
2023-04-18T00:16:28.261Z,9.00
2023-04-18T00:18:55.403Z,8.90
2023-04-18T00:21:22.674Z,8.90
2023-04-18T00:23:49.411Z,8.90
2023-04-18T00:26:16.047Z,8.80
2023-04-18T00:28:42.775Z,8.80
2023-04-18T00:31:09.489Z,8.80
2023-04-18T00:33:36.240Z,8.70
2023-04-18T00:36:03.337Z,8.80
2023-04-18T00:38:30.075Z,8.80
2023-04-18T00:40:56.752Z,8.80
2023-04-18T00:43:26.801Z,8.70
2023-04-18T00:45:54.016Z,8.70
2023-04-18T00:48:20.961Z,8.70
2023-04-18T00:50:47.610Z,8.70
2023-04-18T00:53:15.722Z,8.50
2023-04-18T00:55:42.416Z,8.60
2023-04-18T00:58:09.324Z,8.50
2023-04-18T01:00:36.144Z,8.60
2023-04-18T01:03:03.142Z,8.70
2023-04-18T01:05:30.051Z,8.70
2023-04-18T01:08:00.801Z,8.70
2023-04-18T01:10:28.459Z,8.80
2023-04-18T01:13:12.103Z,8.60
2023-04-18T01:15:41.556Z,8.60
2023-04-18T01:18:09.044Z,8.50
2023-04-18T01:20:41.615Z,8.50
2023-04-18T01:23:10.334Z,8.60
2023-04-18T01:25:37.359Z,8.60
2023-04-18T01:28:04.563Z,8.60
2023-04-18T01:30:31.652Z,8.60
2023-04-18T01:32:58.305Z,8.70
2023-04-18T01:35:24.977Z,8.70
2023-04-18T01:37:51.722Z,8.50
2023-04-18T01:40:18.408Z,8.50
2023-04-18T01:42:45.074Z,8.60
2023-04-18T01:45:13.106Z,8.70
2023-04-18T01:47:39.761Z,8.90
2023-04-18T01:50:06.981Z,8.80
2023-04-18T01:52:33.775Z,8.80
2023-04-18T01:55:02.144Z,8.60
2023-04-18T01:57:28.994Z,8.60
2023-04-18T01:59:55.719Z,8.40
2023-04-18T02:02:22.567Z,8.40
2023-04-18T02:04:49.403Z,8.40
2023-04-18T02:07:16.076Z,8.50
2023-04-18T02:09:42.732Z,8.70
2023-04-18T02:12:10.082Z,8.80
2023-04-18T02:14:36.857Z,8.60
2023-04-18T02:17:03.502Z,8.70
2023-04-18T02:19:30.422Z,8.60
2023-04-18T02:21:57.117Z,8.60
2023-04-18T02:24:23.778Z,8.50
2023-04-18T02:26:50.437Z,8.70
2023-04-18T02:29:17.105Z,8.80
2023-04-18T02:31:43.867Z,8.70
2023-04-18T02:34:10.718Z,8.60
2023-04-18T02:36:37.475Z,8.60
2023-04-18T02:39:04.098Z,8.60
2023-04-18T02:41:31.179Z,8.60
2023-04-18T02:43:58.834Z,8.70
2023-04-18T02:46:25.606Z,8.60
2023-04-18T02:48:52.398Z,8.60
2023-04-18T02:51:20.017Z,8.60
2023-04-18T02:53:46.757Z,8.80
2023-04-18T02:56:16.950Z,8.80
2023-04-18T02:58:43.582Z,8.80
2023-04-18T03:01:10.368Z,8.60
2023-04-18T03:03:37.085Z,8.50
2023-04-18T03:06:03.989Z,8.40
2023-04-18T03:08:30.667Z,8.50
2023-04-18T03:10:57.406Z,8.50
2023-04-18T03:13:24.466Z,8.40
2023-04-18T03:15:51.341Z,8.50
2023-04-18T03:18:18.066Z,8.50
2023-04-18T03:20:44.697Z,8.40
2023-04-18T03:23:11.347Z,8.40
2023-04-18T03:25:38.133Z,8.30
2023-04-18T03:28:04.955Z,8.40
2023-04-18T03:30:31.704Z,8.30
2023-04-18T03:32:59.425Z,8.40
2023-04-18T03:35:26.102Z,8.40
2023-04-18T03:37:52.750Z,8.20
2023-04-18T03:40:19.440Z,8.20
2023-04-18T03:42:46.079Z,8.20
2023-04-18T03:45:12.745Z,8.20
2023-04-18T03:47:39.539Z,8.20
2023-04-18T03:50:08.189Z,8.10
2023-04-18T03:52:35.062Z,8.20
2023-04-18T03:55:01.754Z,8.10
2023-04-18T03:57:28.423Z,8.10
2023-04-18T03:59:55.046Z,8.10
2023-04-18T04:02:21.955Z,8.00
2023-04-18T04:04:48.837Z,8.00
2023-04-18T04:07:15.642Z,7.80
2023-04-18T04:09:42.321Z,7.80
2023-04-18T04:12:08.982Z,7.90
2023-04-18T04:14:35.680Z,8.00
2023-04-18T04:17:02.403Z,7.90
2023-04-18T04:19:29.071Z,7.90
2023-04-18T04:21:55.753Z,7.90
2023-04-18T04:24:22.666Z,7.90
2023-04-18T04:26:50.646Z,7.80
2023-04-18T04:29:18.869Z,7.80
2023-04-18T04:31:45.883Z,7.90
2023-04-18T04:34:12.894Z,7.90
2023-04-18T04:36:41.190Z,7.90
2023-04-18T04:39:08.615Z,7.90
2023-04-18T04:41:37.604Z,7.90
2023-04-18T04:44:04.721Z,7.90
2023-04-18T04:46:31.816Z,7.90
2023-04-18T04:48:58.461Z,7.90
2023-04-18T04:51:25.717Z,7.80
2023-04-18T04:53:52.401Z,7.80
2023-04-18T04:56:19.230Z,7.90
2023-04-18T04:58:47.145Z,8.00
2023-04-18T05:01:13.858Z,7.90
2023-04-18T05:03:41.006Z,8.10
2023-04-18T05:06:08.039Z,8.00
2023-04-18T05:08:34.871Z,8.00
2023-04-18T05:11:02.445Z,8.10
2023-04-18T05:13:29.184Z,8.20
2023-04-18T05:15:56.706Z,8.20
2023-04-18T05:18:23.320Z,8.10
2023-04-18T05:20:50.091Z,8.20
2023-04-18T05:23:16.813Z,8.30
2023-04-18T05:25:43.533Z,8.20
2023-04-18T05:28:10.179Z,8.30
2023-04-18T05:30:36.890Z,8.50
2023-04-18T05:33:03.738Z,8.40
2023-04-18T05:35:30.910Z,8.40
2023-04-18T05:38:00.618Z,8.30
2023-04-18T05:40:27.506Z,8.40
2023-04-18T05:42:54.170Z,8.30
2023-04-18T05:45:20.881Z,8.30
2023-04-18T05:47:47.591Z,8.30
2023-04-18T05:50:14.364Z,8.30
2023-04-18T05:52:43.577Z,8.30
2023-04-18T05:55:10.371Z,8.30
2023-04-18T05:57:37.140Z,8.30
2023-04-18T06:00:06.877Z,8.30
2023-04-18T06:02:33.696Z,8.40
2023-04-18T06:05:01.514Z,8.50
2023-04-18T06:07:28.610Z,8.30
2023-04-18T06:09:55.884Z,8.20
2023-04-18T06:12:22.566Z,8.10
2023-04-18T06:14:49.989Z,8.20
2023-04-18T06:17:16.720Z,8.20
2023-04-18T06:19:43.344Z,8.20
2023-04-18T06:22:09.998Z,8.20
2023-04-18T06:24:37.331Z,8.20
2023-04-18T06:27:09.366Z,8.30
2023-04-18T06:29:43.259Z,8.30
2023-04-18T06:32:10.066Z,8.40
2023-04-18T06:34:38.243Z,8.50
2023-04-18T06:37:05.083Z,8.40
2023-04-18T06:39:31.762Z,8.50
2023-04-18T06:41:58.406Z,8.60
2023-04-18T06:44:25.102Z,8.60
2023-04-18T06:46:51.810Z,8.60
2023-04-18T06:49:18.506Z,8.70
2023-04-18T06:51:45.225Z,8.80
2023-04-18T06:54:12.197Z,8.60
2023-04-18T06:56:39.032Z,8.60
2023-04-18T06:59:05.797Z,8.70
2023-04-18T07:01:35.375Z,8.80
2023-04-18T07:04:02.170Z,8.80
2023-04-18T07:06:28.996Z,8.80
2023-04-18T07:09:00.050Z,8.80
2023-04-18T07:11:27.066Z,8.80
2023-04-18T07:13:53.821Z,8.80
2023-04-18T07:16:21.527Z,8.80
2023-04-18T07:18:48.668Z,8.80
2023-04-18T07:21:15.662Z,8.80
2023-04-18T07:23:42.299Z,8.90
2023-04-18T07:26:09.976Z,8.90
2023-04-18T07:28:41.960Z,8.90
2023-04-18T07:31:11.264Z,9.00
2023-04-18T07:33:38.669Z,9.00
2023-04-18T07:36:06.044Z,9.10
2023-04-18T07:38:35.233Z,9.00
2023-04-18T07:41:02.527Z,9.10
2023-04-18T07:43:29.325Z,9.10
2023-04-18T07:45:56.053Z,9.10
2023-04-18T07:48:22.928Z,9.10
2023-04-18T07:50:50.895Z,9.10
2023-04-18T07:53:18.550Z,9.00
2023-04-18T07:55:46.427Z,9.00
2023-04-18T07:58:13.610Z,9.00
2023-04-18T08:00:42.597Z,8.90
2023-04-18T08:03:13.003Z,8.90
2023-04-18T08:05:41.803Z,9.10
2023-04-18T08:08:10.446Z,9.20
2023-04-18T08:10:37.363Z,9.30
2023-04-18T08:13:04.542Z,9.40
2023-04-18T08:15:32.609Z,9.70
2023-04-18T08:18:02.880Z,9.90
2023-04-18T08:20:29.602Z,10.00
2023-04-18T08:25:26.004Z,10.10
2023-04-18T08:27:52.693Z,10.10
2023-04-18T08:30:19.513Z,10.10
2023-04-18T08:32:46.349Z,10.20
2023-04-18T08:35:13.102Z,10.20
2023-04-18T08:37:39.902Z,10.30
2023-04-18T08:40:07.475Z,10.40
2023-04-18T08:42:35.477Z,10.50
2023-04-18T08:45:02.570Z,10.50
2023-04-18T08:47:29.950Z,10.60
2023-04-18T08:49:57.359Z,10.60
2023-04-18T08:52:25.828Z,10.70
2023-04-18T08:54:52.699Z,10.70
2023-04-18T08:57:29.647Z,10.60
2023-04-18T08:59:56.686Z,10.50
2023-04-18T09:02:38.988Z,10.60
2023-04-18T09:05:19.379Z,10.50
2023-04-18T09:07:47.668Z,10.50
2023-04-18T09:10:36.130Z,10.50
2023-04-18T09:13:06.741Z,10.50
2023-04-18T09:15:34.407Z,10.60
2023-04-18T09:18:03.269Z,10.60
2023-04-18T09:20:42.185Z,10.60
2023-04-18T09:23:11.157Z,10.60
2023-04-18T09:25:48.071Z,10.60
2023-04-18T09:28:33.299Z,10.70
2023-04-18T09:31:15.561Z,10.70
2023-04-18T09:33:54.041Z,10.70
2023-04-18T09:36:23.647Z,10.90
2023-04-18T09:38:54.609Z,11.00
2023-04-18T09:41:23.689Z,11.00
2023-04-18T09:43:52.447Z,11.00
2023-04-18T09:46:21.730Z,11.00
2023-04-18T09:48:48.522Z,11.10
2023-04-18T09:51:16.403Z,11.10
2023-04-18T09:53:44.861Z,11.20
2023-04-18T09:56:28.521Z,11.20
2023-04-18T09:59:08.712Z,11.30
2023-04-18T10:01:36.769Z,11.30
2023-04-18T10:04:06.744Z,11.40
2023-04-18T10:06:39.671Z,11.40
2023-04-18T10:09:08.980Z,11.50
2023-04-18T10:11:36.404Z,11.50
2023-04-18T10:14:07.859Z,11.40
2023-04-18T10:16:36.417Z,11.50
2023-04-18T10:19:23.223Z,11.50
2023-04-18T10:21:53.698Z,11.80
2023-04-18T10:24:45.088Z,11.70
2023-04-18T10:27:11.758Z,11.70
2023-04-18T10:29:52.331Z,11.80
2023-04-18T10:32:22.656Z,11.90
2023-04-18T10:34:50.405Z,11.90
2023-04-18T10:37:18.978Z,11.90
2023-04-18T10:40:05.610Z,11.90
2023-04-18T10:42:47.563Z,12.00
2023-04-18T10:45:18.298Z,12.10
2023-04-18T10:47:45.399Z,12.00
2023-04-18T10:50:13.565Z,12.20
2023-04-18T10:52:41.717Z,12.30
2023-04-18T10:55:10.034Z,12.00
2023-04-18T10:57:57.970Z,12.10
2023-04-18T11:00:25.475Z,12.20
2023-04-18T11:02:57.553Z,12.40
2023-04-18T11:05:31.384Z,12.60
2023-04-18T11:07:58.065Z,12.40
2023-04-18T11:10:26.567Z,12.50
2023-04-18T11:12:54.603Z,12.60
2023-04-18T11:15:23.879Z,12.70
2023-04-18T11:18:04.798Z,12.80
2023-04-18T11:20:39.667Z,12.90
2023-04-18T11:23:16.130Z,12.90
2023-04-18T11:25:44.925Z,12.70
2023-04-18T11:28:16.740Z,12.80
2023-04-18T11:30:43.506Z,12.80
2023-04-18T11:33:11.805Z,12.60
2023-04-18T11:35:39.460Z,12.50
2023-04-18T11:38:11.622Z,12.50
2023-04-18T11:40:52.876Z,12.60
2023-04-18T11:43:28.686Z,12.70
2023-04-18T11:45:57.397Z,12.60
2023-04-18T11:48:33.587Z,12.60
2023-04-18T11:51:01.040Z,12.70
2023-04-18T11:53:38.721Z,12.60
2023-04-18T11:56:05.831Z,12.70
2023-04-18T11:58:36.478Z,12.80
2023-04-18T12:01:20.193Z,12.70
2023-04-18T12:04:02.873Z,12.70
2023-04-18T12:06:46.511Z,12.60
2023-04-18T12:09:17.281Z,12.80
2023-04-18T12:11:44.273Z,12.70
2023-04-18T12:14:21.545Z,12.70
2023-04-18T12:16:51.784Z,12.90
2023-04-18T12:19:20.336Z,12.90
2023-04-18T12:22:00.331Z,13.00
2023-04-18T12:24:28.985Z,13.20
2023-04-18T12:26:58.028Z,13.30
2023-04-18T12:29:25.693Z,13.20
2023-04-18T12:31:52.832Z,13.20
2023-04-18T12:34:19.959Z,13.10
2023-04-18T12:36:46.855Z,13.20
2023-04-18T12:39:13.605Z,13.10
2023-04-18T12:41:40.310Z,13.20
2023-04-18T12:44:06.967Z,13.00
2023-04-18T12:46:33.816Z,13.30
2023-04-18T12:49:00.853Z,13.30
2023-04-18T12:51:27.887Z,13.10
2023-04-18T12:53:54.641Z,13.10
2023-04-18T12:56:21.505Z,13.00
2023-04-18T12:58:48.979Z,13.10
2023-04-18T13:01:16.493Z,13.10
2023-04-18T13:03:43.355Z,13.10
2023-04-18T13:06:10.275Z,13.10
2023-04-18T13:08:37.664Z,13.20
2023-04-18T13:11:04.541Z,13.50
2023-04-18T13:13:31.664Z,13.50
2023-04-18T13:15:59.332Z,13.50
2023-04-18T13:18:26.216Z,13.50
2023-04-18T13:20:53.831Z,13.40
2023-04-18T13:23:20.543Z,13.40
2023-04-18T13:25:47.253Z,13.30
2023-04-18T13:28:13.889Z,13.30
2023-04-18T13:30:40.678Z,13.30
2023-04-18T13:33:07.459Z,13.40
2023-04-18T13:35:34.179Z,13.60
2023-04-18T13:38:00.891Z,13.70
2023-04-18T13:40:30.572Z,13.60
2023-04-18T13:42:57.283Z,13.80
2023-04-18T13:45:23.913Z,13.60
2023-04-18T13:47:50.807Z,13.70
2023-04-18T13:50:17.738Z,13.80
2023-04-18T13:52:44.637Z,13.70
2023-04-18T13:55:12.335Z,13.80
2023-04-18T13:57:39.259Z,13.60
2023-04-18T14:00:07.146Z,13.60
2023-04-18T14:02:34.067Z,13.60
2023-04-18T14:05:01.282Z,13.50
2023-04-18T14:07:28.314Z,13.50
2023-04-18T14:09:55.229Z,13.60
2023-04-18T14:12:22.384Z,13.60
2023-04-18T14:14:49.128Z,13.60
2023-04-18T14:17:15.846Z,13.60
2023-04-18T14:19:42.665Z,13.60
2023-04-18T14:22:09.383Z,13.50
2023-04-18T14:24:36.495Z,13.50
2023-04-18T14:27:07.061Z,13.60
2023-04-18T14:29:33.732Z,13.50
2023-04-18T14:32:00.871Z,13.40
2023-04-18T14:34:27.930Z,13.40
2023-04-18T14:36:54.777Z,13.40
2023-04-18T14:39:21.692Z,13.50
2023-04-18T14:41:48.522Z,13.50
2023-04-18T14:44:15.324Z,13.60
2023-04-18T14:46:42.734Z,13.50
2023-04-18T14:49:09.641Z,13.30
2023-04-18T14:51:36.407Z,13.50
2023-04-18T14:54:03.240Z,13.50
2023-04-18T14:56:29.959Z,13.50
2023-04-18T14:58:56.693Z,13.50
2023-04-18T15:01:23.521Z,13.40
2023-04-18T15:03:51.411Z,13.40
2023-04-18T15:06:18.318Z,13.40
2023-04-18T15:08:45.122Z,13.50
2023-04-18T15:11:11.980Z,13.50
2023-04-18T15:13:39.916Z,13.40
2023-04-18T15:16:07.185Z,13.50
2023-04-18T15:18:33.944Z,13.60
2023-04-18T15:21:00.811Z,13.50
2023-04-18T15:23:27.636Z,13.50
2023-04-18T15:25:54.496Z,13.50
2023-04-18T15:28:21.249Z,13.80
2023-04-18T15:30:48.015Z,13.70
2023-04-18T15:33:15.721Z,13.70
2023-04-18T15:35:42.540Z,13.60
2023-04-18T15:38:09.310Z,13.80
2023-04-18T15:40:36.527Z,13.80
2023-04-18T15:43:04.053Z,13.80
2023-04-18T15:45:30.890Z,13.60
2023-04-18T15:47:57.596Z,13.60
2023-04-18T15:50:24.460Z,13.70
2023-04-18T15:52:51.152Z,13.80
2023-04-18T15:55:17.932Z,13.80
2023-04-18T15:57:44.874Z,13.70
2023-04-18T16:00:15.986Z,13.80
2023-04-18T16:02:44.214Z,13.70
2023-04-18T16:05:12.458Z,13.90
2023-04-18T16:07:42.887Z,13.90
2023-04-18T16:10:10.662Z,14.00
2023-04-18T16:12:38.966Z,14.10
2023-04-18T16:15:07.334Z,14.10
2023-04-18T16:17:35.181Z,14.00
2023-04-18T16:20:01.965Z,13.90
2023-04-18T16:22:28.972Z,13.80
2023-04-18T16:24:55.790Z,13.80
2023-04-18T16:27:22.613Z,13.80
2023-04-18T16:29:49.639Z,13.90
2023-04-18T16:32:16.426Z,13.90
2023-04-18T16:34:43.244Z,13.60
2023-04-18T16:37:10.060Z,13.50
2023-04-18T16:39:37.338Z,13.50
2023-04-18T16:42:04.586Z,13.40
2023-04-18T16:44:31.457Z,13.50
2023-04-18T16:46:58.380Z,13.50
2023-04-18T16:49:26.121Z,13.40
2023-04-18T16:51:52.918Z,13.40
2023-04-18T16:54:19.719Z,13.20
2023-04-18T16:56:46.504Z,13.20
2023-04-18T16:59:13.302Z,13.20
2023-04-18T17:01:40.245Z,13.10
2023-04-18T17:04:07.115Z,13.30
2023-04-18T17:06:34.027Z,13.10
2023-04-18T17:09:00.836Z,13.30
2023-04-18T17:11:27.931Z,13.30
2023-04-18T17:13:54.809Z,13.20
2023-04-18T17:16:21.791Z,13.20
2023-04-18T17:18:48.675Z,13.10
2023-04-18T17:21:15.539Z,13.10
2023-04-18T17:23:42.690Z,13.00
2023-04-18T17:26:09.993Z,13.20
2023-04-18T17:28:37.110Z,13.10
2023-04-18T17:31:04.369Z,13.20
2023-04-18T17:33:31.612Z,13.30
2023-04-18T17:35:58.878Z,13.30
2023-04-18T17:38:25.808Z,13.10
2023-04-18T17:41:04.708Z,13.00
2023-04-18T17:43:31.535Z,12.90
2023-04-18T17:46:00.545Z,13.10
2023-04-18T17:48:27.476Z,13.20
2023-04-18T17:50:54.196Z,13.20
2023-04-18T17:53:20.994Z,13.30
2023-04-18T17:55:50.517Z,13.20
2023-04-18T17:58:17.320Z,13.20
2023-04-18T18:00:44.213Z,13.20
2023-04-18T18:03:16.487Z,13.20
2023-04-18T18:05:46.023Z,13.20
2023-04-18T18:08:12.817Z,13.10
2023-04-18T18:10:39.723Z,13.10
2023-04-18T18:13:06.985Z,13.10
2023-04-18T18:15:33.808Z,13.10
2023-04-18T18:18:02.032Z,13.10
2023-04-18T18:20:29.342Z,13.00
2023-04-18T18:22:57.392Z,13.00
2023-04-18T18:25:24.162Z,13.00
2023-04-18T18:27:51.566Z,13.10
2023-04-18T18:30:18.970Z,13.10
2023-04-18T18:32:45.887Z,13.00
2023-04-18T18:35:12.906Z,13.10
2023-04-18T18:37:40.929Z,12.80
2023-04-18T18:40:08.452Z,12.80
2023-04-18T18:42:35.342Z,12.80
2023-04-18T18:45:03.568Z,12.80
2023-04-18T18:47:30.672Z,12.80
2023-04-18T18:49:57.752Z,12.90
2023-04-18T18:52:24.901Z,12.90
2023-04-18T18:54:51.637Z,12.80
2023-04-18T18:57:18.362Z,12.80
2023-04-18T18:59:45.247Z,12.70
2023-04-18T19:02:12.307Z,12.70
2023-04-18T19:04:39.295Z,12.80
2023-04-18T19:07:06.198Z,12.70
2023-04-18T19:09:35.250Z,12.50
2023-04-18T19:12:05.620Z,12.60
2023-04-18T19:14:32.963Z,12.50
2023-04-18T19:17:00.302Z,12.50
2023-04-18T19:19:27.315Z,12.90
2023-04-18T19:21:54.138Z,12.60
2023-04-18T19:24:21.137Z,12.40
2023-04-18T19:26:48.138Z,12.30
2023-04-18T19:29:15.046Z,12.40
2023-04-18T19:31:43.621Z,12.40
2023-04-18T19:34:12.077Z,12.30
2023-04-18T19:36:51.430Z,12.20
2023-04-18T19:39:18.195Z,12.30
2023-04-18T19:41:46.088Z,12.40
2023-04-18T19:44:12.911Z,12.30
2023-04-18T19:46:39.676Z,12.30
2023-04-18T19:49:06.605Z,12.30
2023-04-18T19:51:33.302Z,12.30
2023-04-18T19:54:00.059Z,12.40
2023-04-18T19:56:26.997Z,12.30
2023-04-18T19:58:56.999Z,12.20
2023-04-18T20:01:25.386Z,12.30
2023-04-18T20:03:52.539Z,12.30
2023-04-18T20:06:20.224Z,12.30
2023-04-18T20:08:46.956Z,12.30
2023-04-18T20:11:14.298Z,12.20
2023-04-18T20:13:41.536Z,11.90
2023-04-18T20:16:09.381Z,12.00
2023-04-18T20:18:41.339Z,11.90
2023-04-18T20:21:09.985Z,11.80
2023-04-18T20:23:37.386Z,12.00
2023-04-18T20:26:04.557Z,11.90
2023-04-18T20:28:31.903Z,11.80
2023-04-18T20:30:58.917Z,11.80
2023-04-18T20:33:25.837Z,12.00
2023-04-18T20:35:55.205Z,11.80
2023-04-18T20:38:25.801Z,11.80
2023-04-18T20:40:53.314Z,12.00
2023-04-18T20:43:20.365Z,11.80
2023-04-18T20:45:50.941Z,11.70
2023-04-18T20:48:18.352Z,11.70
2023-04-18T20:50:50.765Z,11.80
2023-04-18T20:53:20.996Z,11.70
2023-04-18T20:55:48.842Z,11.70
2023-04-18T20:58:15.873Z,11.50
2023-04-18T21:00:44.483Z,11.60
2023-04-18T21:03:15.207Z,11.70
2023-04-18T21:05:43.964Z,11.60
2023-04-18T21:08:11.446Z,11.70
2023-04-18T21:10:38.305Z,11.60
2023-04-18T21:13:05.030Z,11.60
2023-04-18T21:15:31.892Z,11.60
2023-04-18T21:17:58.554Z,11.50
2023-04-18T21:20:25.347Z,11.30
2023-04-18T21:22:52.046Z,11.40
2023-04-18T21:25:21.111Z,11.40
2023-04-18T21:27:47.924Z,11.20
2023-04-18T21:30:14.789Z,11.20
2023-04-18T21:32:41.563Z,11.40
2023-04-18T21:35:08.632Z,11.30
2023-04-18T21:37:35.439Z,11.30
2023-04-18T21:40:02.161Z,11.20
2023-04-18T21:42:28.915Z,11.40
2023-04-18T21:44:55.798Z,11.30
2023-04-18T21:47:22.640Z,11.10
2023-04-18T21:49:49.487Z,11.20
2023-04-18T21:52:16.325Z,11.30
2023-04-18T21:54:43.154Z,11.20
2023-04-18T21:57:09.949Z,11.30
2023-04-18T21:59:36.615Z,11.20
2023-04-18T22:02:03.328Z,11.10
2023-04-18T22:04:30.224Z,11.00
2023-04-18T22:06:57.376Z,11.20
2023-04-18T22:09:24.288Z,11.10
2023-04-18T22:11:56.572Z,11.20
2023-04-18T22:14:24.833Z,11.20
2023-04-18T22:16:51.854Z,11.00
2023-04-18T22:19:19.191Z,11.10
2023-04-18T22:21:46.198Z,11.20
2023-04-18T22:24:13.094Z,11.30
2023-04-18T22:26:40.795Z,11.10
2023-04-18T22:29:07.587Z,11.20
2023-04-18T22:31:34.349Z,11.20
2023-04-18T22:34:01.131Z,11.10
2023-04-18T22:36:27.826Z,11.10
2023-04-18T22:38:54.484Z,11.10
2023-04-18T22:41:21.245Z,11.00
2023-04-18T22:43:47.932Z,11.10
2023-04-18T22:46:14.764Z,11.10
2023-04-18T22:48:41.531Z,11.20
2023-04-18T22:51:08.166Z,11.10
2023-04-18T22:53:34.960Z,11.20
2023-04-18T22:56:01.670Z,11.10
2023-04-18T22:58:28.504Z,11.10
2023-04-18T23:00:55.403Z,11.10
2023-04-18T23:03:22.306Z,11.00
2023-04-18T23:05:49.142Z,11.00
2023-04-18T23:08:15.782Z,11.10
2023-04-18T23:10:42.377Z,11.20
2023-04-18T23:13:09.077Z,11.10
2023-04-18T23:15:35.886Z,11.20
2023-04-18T23:18:02.700Z,11.50
2023-04-18T23:20:29.420Z,11.50
2023-04-18T23:22:56.174Z,11.50
2023-04-18T23:25:22.969Z,11.50
2023-04-18T23:27:49.689Z,11.40
2023-04-18T23:30:17.177Z,11.40
2023-04-18T23:32:44.000Z,11.30
2023-04-18T23:35:11.423Z,11.10
2023-04-18T23:37:38.154Z,11.10
2023-04-18T23:40:06.611Z,11.10
2023-04-18T23:42:36.777Z,11.10
2023-04-18T23:45:04.524Z,11.20
2023-04-18T23:47:31.300Z,11.20
2023-04-18T23:49:58.036Z,11.10
2023-04-18T23:52:24.710Z,11.00
2023-04-18T23:54:51.728Z,11.10
2023-04-18T23:57:18.398Z,11.00
2023-04-18T23:59:45.057Z,11.10
